This is the latest recevied weather packets stored in our database for station/object BGGH. If no packets are shown the sender has not sent any weather packets the latest 10 day(s).
| Time | Temp. | Humidity | Pressure | Rain* | Wind** | Luminosity | Snow |
|---|---|---|---|---|---|---|---|
| 1788082995 | 7.78° C | 61% | 1005 hPa | - | - | - | - |
| 1788082395 | 7.78° C | 61% | 1005 hPa | - | - | - | - |
| 1788081795 | 6.67° C | 70% | 1005 hPa | - | - | - | - |
| 1788081190 | 6.67° C | 70% | 1005 hPa | - | - | - | - |
| 1788080595 | 6.67° C | 70% | 1005 hPa | - | - | - | - |
| 1788079996 | 6.67° C | 75% | 1005 hPa | - | - | - | - |
| 1788079394 | 6.67° C | 75% | 1005 hPa | - | - | - | - |
| 1788078795 | 6.67° C | 75% | 1005 hPa | - | - | - | - |
| 1788078193 | 10.56° C | 43% | 1005 hPa | - | - | - | - |
| 1788077597 | 10.56° C | 43% | 1005 hPa | - | - | - | - |
| 1788076995 | 10.56° C | 43% | 1005 hPa | - | - | - | - |
| 1788076397 | 7.78° C | 70% | 1006 hPa | - | - | - | - |
| 1788075794 | 7.78° C | 70% | 1006 hPa | - | - | - | - |
| 1788075197 | 7.78° C | 70% | 1006 hPa | - | - | - | - |
| 1788074598 | 7.78° C | 65% | 1006 hPa | - | - | - | - |
| 1788073994 | 7.78° C | 65% | 1006 hPa | - | - | - | - |
| 1788073394 | 7.78° C | 65% | 1006 hPa | - | - | - | - |
| 1788072796 | 5.56° C | 86% | 1006 hPa | - | - | - | - |
| 1788072195 | 5.56° C | 86% | 1006 hPa | - | - | - | - |
| 1788071598 | 5.56° C | 86% | 1006 hPa | - | - | - | - |
| 1788070999 | 6.67° C | 81% | 1006 hPa | - | - | - | - |
| 1788070396 | 6.67° C | 81% | 1006 hPa | - | - | - | - |
| 1788069794 | 6.67° C | 81% | 1006 hPa | - | - | - | - |
| 1788069194 | 6.67° C | 75% | 1007 hPa | - | - | - | - |
| 1788068594 | 6.67° C | 75% | 1007 hPa | - | - | - | - |
* Rain since midnight (hover to see other rain measurements)
** Current wind speed in m/s (hover to see current wind gust speed)